Michelle 1 — 9HA2395 — position and weather

sailwx.info

Track history (hours):
 
Tides and Currents Weather Stations Pressure Air Temp Water Temp Dewpoint Dewpoint Depression Visibility Wind Speed Wind Dir Waves Ship Positions

Michelle 1

Last reported at 2018-Apr-24 17:24 UTC. Time now 2018-Apr-24 23:03 UTC.
Position N 36°50' E 023°34'.

Length 116 m; draft 6 m.

Type: Cargo ship. MMSI: 248527000.

Date/timePositionNaut miles runAvg speedWind from/ knotsBaromVisibWave heightAir tempDewpointWater temp
2018-Apr-24 17:24N 36°50' E 023°34'5 9.4
2018-Apr-24 16:51N 36°54' E 023°37'3 9.3
2018-Apr-24 16:30N 36°57' E 023°39'5 9.4
2018-Apr-24 16:00N 37°01' E 023°43'6 9.6
2018-Apr-24 15:21N 37°06' E 023°47'15 9.8
2018-Apr-24 13:47N 37°19' E 023°57'4 9.6
2018-Apr-24 13:19N 37°23' E 023°60'177 9.9
2018-Apr-23 19:30N 39°56' E 025°54'273 5.6
2018-Apr-21 18:21N 43°20' E 029°56'3 9.8
2018-Apr-21 18:00N 43°23' E 029°58'5 9.7
2018-Apr-21 17:29N 43°28' E 029°60'5 9.9
2018-Apr-21 16:56N 43°33' E 030°02'165 9.6
2018-Apr-20 23:49N 46°14' E 030°56'7 9.0
2018-Apr-20 23:05N 46°20' E 030°55'110.2
2018-Apr-20 23:00N 46°21' E 030°55'510.2
2018-Apr-20 22:30N 46°26' E 030°55'510.1
2018-Apr-20 22:00N 46°31' E 030°55'35 8.7
2018-Apr-20 17:58N 46°36' E 031°46'5 9.4
2018-Apr-20 17:26N 46°37' E 031°53'4 8.7
2018-Apr-20 17:00N 46°41' E 031°56'4 8.3
2018-Apr-20 16:30N 46°45' E 031°54'4 8.4
2018-Apr-20 16:00N 46°49' E 031°54'5 9.8
2018-Apr-20 15:30N 46°52' E 031°59'4 8.6
2018-Apr-20 15:00N 46°56' E 032°01'0 0.4
2018-Apr-20 14:29N 46°57' E 032°01'0 0.0
2018-Apr-20 13:59N 46°57' E 032°01'0 0.0
2018-Apr-20 13:29N 46°57' E 032°01'0 0.0
2018-Apr-20 12:59N 46°57' E 032°01'0 0.0
2018-Apr-20 12:29N 46°57' E 032°01'0 0.0
2018-Apr-20 11:59N 46°57' E 032°01'0 0.0
2018-Apr-20 11:29N 46°57' E 032°01'0 0.0
2018-Apr-20 10:59N 46°57' E 032°01'0 0.0
2018-Apr-20 10:29N 46°57' E 032°01'0 0.0
2018-Apr-20 09:59N 46°57' E 032°01'0 0.0
2018-Apr-20 09:29N 46°57' E 032°01'0 0.0
2018-Apr-20 08:59N 46°57' E 032°01'0 0.0
2018-Apr-20 08:29N 46°57' E 032°01'0 0.0
2018-Apr-20 07:59N 46°57' E 032°01'0 0.0
2018-Apr-20 07:29N 46°57' E 032°01'0 0.0
2018-Apr-20 06:59N 46°57' E 032°01'0 0.0
2018-Apr-20 06:26N 46°57' E 032°01'0 0.0
2018-Apr-20 05:59N 46°57' E 032°01'0 0.0
2018-Apr-20 05:29N 46°57' E 032°01'0 0.0
2018-Apr-20 04:59N 46°57' E 032°01'0 0.0
2018-Apr-20 04:29N 46°57' E 032°01'0 0.0
2018-Apr-20 03:59N 46°57' E 032°01'0 0.0
2018-Apr-20 03:29N 46°57' E 032°01'0 0.0
2018-Apr-20 02:59N 46°57' E 032°01'0 0.0
2018-Apr-20 02:29N 46°57' E 032°01'0 0.0
2018-Apr-20 01:59N 46°57' E 032°01'0 0.0
2018-Apr-20 01:29N 46°57' E 032°01'0 0.0
2018-Apr-20 00:59N 46°57' E 032°01'0 0.0
2018-Apr-20 00:29N 46°57' E 032°01'0 0.0
2018-Apr-19 23:59N 46°57' E 032°01'0 0.0
2018-Apr-19 23:29N 46°57' E 032°01'0 0.0
2018-Apr-19 22:59N 46°57' E 032°01'0 0.0
2018-Apr-19 22:29N 46°57' E 032°01'0 0.0
2018-Apr-19 21:59N 46°57' E 032°01'0 0.0
2018-Apr-19 21:29N 46°57' E 032°01'0 0.0
2018-Apr-19 20:56N 46°57' E 032°01'0 0.0
2018-Apr-19 20:29N 46°57' E 032°01'0 0.0
2018-Apr-19 19:59N 46°57' E 032°01'0 0.0
2018-Apr-19 19:29N 46°57' E 032°01'0 0.0
2018-Apr-19 18:59N 46°57' E 032°01'0 0.0
2018-Apr-19 18:29N 46°57' E 032°01'0 0.0
2018-Apr-19 17:59N 46°57' E 032°01'0 0.0
2018-Apr-19 17:29N 46°57' E 032°01'0 0.0
2018-Apr-19 16:59N 46°57' E 032°01'0 0.0
2018-Apr-19 16:29N 46°57' E 032°01'0 0.0
2018-Apr-19 15:59N 46°57' E 032°01'0 0.0
2018-Apr-19 15:29N 46°57' E 032°01'0 0.0
2018-Apr-19 14:59N 46°57' E 032°01'0 0.0
2018-Apr-19 14:29N 46°57' E 032°01'0 0.0
2018-Apr-19 13:59N 46°57' E 032°01'0 0.0
2018-Apr-19 13:26N 46°57' E 032°01'0 0.0
2018-Apr-19 12:59N 46°57' E 032°01'0 0.0
2018-Apr-19 12:29N 46°57' E 032°01'0 0.0
2018-Apr-19 11:59N 46°57' E 032°01'0 0.0
2018-Apr-19 11:29N 46°57' E 032°01'0 0.0
2018-Apr-19 10:59N 46°57' E 032°01'0 0.0
2018-Apr-19 10:29N 46°57' E 032°01'0 0.0
2018-Apr-19 09:59N 46°57' E 032°01'0 0.0
2018-Apr-19 09:29N 46°57' E 032°01'0 0.0
2018-Apr-19 08:59N 46°57' E 032°01'0 0.0
2018-Apr-19 08:29N 46°57' E 032°01'0 0.0
2018-Apr-19 07:59N 46°57' E 032°01'0 0.0
2018-Apr-19 07:29N 46°57' E 032°01'0 0.0
2018-Apr-19 06:59N 46°57' E 032°01'0 0.0
2018-Apr-19 06:29N 46°57' E 032°01'0 0.0
2018-Apr-19 05:59N 46°57' E 032°01'0 0.0
2018-Apr-19 05:29N 46°57' E 032°01'0 0.0
2018-Apr-19 04:59N 46°57' E 032°01'0 0.0
2018-Apr-19 04:29N 46°57' E 032°01'0 0.0
2018-Apr-19 03:59N 46°57' E 032°01'0 0.0
2018-Apr-19 03:29N 46°57' E 032°01'0 0.0
2018-Apr-19 02:59N 46°57' E 032°01'0 0.0
2018-Apr-19 02:29N 46°57' E 032°01'0 0.0
2018-Apr-19 01:59N 46°57' E 032°01'0 0.0
2018-Apr-19 01:29N 46°57' E 032°01'0 0.0
2018-Apr-19 00:59N 46°57' E 032°01'0 0.0
2018-Apr-19 00:29N 46°57' E 032°01'0 0.0
2018-Apr-18 23:59N 46°57' E 032°01'0 0.0
2018-Apr-18 23:29N 46°57' E 032°01'0 0.0
2018-Apr-18 22:14N 46°57' E 032°01'0 0.0
2018-Apr-18 21:59N 46°57' E 032°01'0 0.0
2018-Apr-18 21:29N 46°57' E 032°01'0 0.0
2018-Apr-18 20:59N 46°57' E 032°01'0 0.0
2018-Apr-18 20:29N 46°57' E 032°01'0 0.0
2018-Apr-18 19:59N 46°57' E 032°01'0 0.0
2018-Apr-18 19:29N 46°57' E 032°01'0 0.0
2018-Apr-18 18:59N 46°57' E 032°01'0 0.0
2018-Apr-18 18:29N 46°57' E 032°01'0 0.0
2018-Apr-18 17:59N 46°57' E 032°01'0 0.0
2018-Apr-18 17:29N 46°57' E 032°01'0 0.0
2018-Apr-18 16:59N 46°57' E 032°01'0 0.0
2018-Apr-18 16:29N 46°57' E 032°01'0 0.0
2018-Apr-18 15:59N 46°57' E 032°01'0 0.0
2018-Apr-18 15:29N 46°57' E 032°01'0 0.0
2018-Apr-18 14:59N 46°57' E 032°01'0 0.0
2018-Apr-18 14:29N 46°57' E 032°01'0 0.0
2018-Apr-18 13:59N 46°57' E 032°01'0 0.0
2018-Apr-18 13:29N 46°57' E 032°01'0 0.0
2018-Apr-18 12:59N 46°57' E 032°01'0 0.0
2018-Apr-18 12:29N 46°57' E 032°01'0 0.0
2018-Apr-18 11:59N 46°57' E 032°01'0 0.0
2018-Apr-18 11:29N 46°57' E 032°01'0 0.0
2018-Apr-18 10:59N 46°57' E 032°01'0 0.0
2018-Apr-18 10:29N 46°57' E 032°01'0 0.0
2018-Apr-18 09:59N 46°57' E 032°01'0 0.0
2018-Apr-18 09:29N 46°57' E 032°01'0 0.0
2018-Apr-18 08:59N 46°57' E 032°01'0 0.0
2018-Apr-18 08:29N 46°57' E 032°01'0 0.0
2018-Apr-18 07:59N 46°57' E 032°01'0 0.0
2018-Apr-18 07:29N 46°57' E 032°01'0 0.0
2018-Apr-18 06:59N 46°57' E 032°01'0 0.0
2018-Apr-18 06:29N 46°57' E 032°01'0 0.0
2018-Apr-18 05:59N 46°57' E 032°01'0 0.0
2018-Apr-18 05:29N 46°57' E 032°01'0 0.0
2018-Apr-18 04:59N 46°57' E 032°01'0 0.0
2018-Apr-18 04:29N 46°57' E 032°01'0 0.0
2018-Apr-18 03:59N 46°57' E 032°01'0 0.0
2018-Apr-18 03:29N 46°57' E 032°01'0 0.0
2018-Apr-18 02:59N 46°57' E 032°01'0 0.0
2018-Apr-18 02:29N 46°57' E 032°01'0 0.0
2018-Apr-18 01:56N 46°57' E 032°01'0 0.0
2018-Apr-18 01:29N 46°57' E 032°01'0 0.0
2018-Apr-18 00:59N 46°57' E 032°01'0 0.0
2018-Apr-18 00:29N 46°57' E 032°01'0 0.0
2018-Apr-17 23:59N 46°57' E 032°01'0 0.0
2018-Apr-17 23:29N 46°57' E 032°01'0 0.0
2018-Apr-17 22:59N 46°57' E 032°01'0 0.0
2018-Apr-17 22:29N 46°57' E 032°01'0 0.0
2018-Apr-17 21:59N 46°57' E 032°01'0 0.0
2018-Apr-17 21:29N 46°57' E 032°01'0 0.0
2018-Apr-17 20:59N 46°57' E 032°01'0 0.0
2018-Apr-17 20:29N 46°57' E 032°01'0 0.0
2018-Apr-17 19:59N 46°57' E 032°01'0 0.0
2018-Apr-17 19:29N 46°57' E 032°01'0 0.0
2018-Apr-17 18:59N 46°57' E 032°01'0 0.0
2018-Apr-17 18:29N 46°57' E 032°01'0 0.0
2018-Apr-17 17:59N 46°57' E 032°01'0 0.0
2018-Apr-17 17:29N 46°57' E 032°01'0 0.0
2018-Apr-17 16:59N 46°57' E 032°01'0 0.0
2018-Apr-17 16:29N 46°57' E 032°01'0 0.0
2018-Apr-17 15:59N 46°57' E 032°01'0 0.0
2018-Apr-17 15:29N 46°57' E 032°01'0 0.0
2018-Apr-17 14:59N 46°57' E 032°01'0 0.0
2018-Apr-17 14:29N 46°57' E 032°01'0 0.0
2018-Apr-17 13:59N 46°57' E 032°01'0 0.0
2018-Apr-17 13:29N 46°57' E 032°01'0 0.0
2018-Apr-17 12:59N 46°57' E 032°01'0 0.0
2018-Apr-17 12:29N 46°57' E 032°01'0 0.0
2018-Apr-17 11:59N 46°57' E 032°01'0 0.0
2018-Apr-17 11:29N 46°57' E 032°01'0 0.0
2018-Apr-17 10:59N 46°57' E 032°01'0 0.0
2018-Apr-17 10:29N 46°57' E 032°01'0 0.0
2018-Apr-17 09:59N 46°57' E 032°01'0 0.0
2018-Apr-17 09:30N 46°57' E 032°01'1 1.3
2018-Apr-17 09:00N 46°56' E 032°01'4 7.9
2018-Apr-17 08:30N 46°52' E 031°59'510.6
2018-Apr-17 08:00N 46°48' E 031°54'5 9.2
2018-Apr-17 07:30N 46°44' E 031°56'510.0
2018-Apr-17 07:00N 46°39' E 031°56'510.1
2018-Apr-17 06:30N 46°36' E 031°49'5 9.7
2018-Apr-17 06:00N 46°36' E 031°42'510.0
2018-Apr-17 05:30N 46°35' E 031°35'4 8.5
2018-Apr-17 05:00N 46°36' E 031°29'5 9.9
2018-Apr-17 04:28N 46°35' E 031°21'510.1
2018-Apr-17 04:00N 46°35' E 031°15'610.3
2018-Apr-17 03:27N 46°35' E 031°06'4 8.8
2018-Apr-17 03:00N 46°33' E 031°01'3 6.5
2018-Apr-17 02:30N 46°32' E 030°57'4 8.6
2018-Apr-17 02:00N 46°27' E 030°57'4 7.2
2018-Apr-17 01:29N 46°24' E 030°57'4 7.4
2018-Apr-17 01:00N 46°20' E 030°60'4 7.1
2018-Apr-17 00:22N 46°19' E 031°06'0 0.1
2018-Apr-16 23:43N 46°19' E 031°06'0 0.0
2018-Apr-16 23:25N 46°19' E 031°06'0 0.0
2018-Apr-16 22:55N 46°19' E 031°06'0 0.0
2018-Apr-16 22:28N 46°19' E 031°06'0 0.0
2018-Apr-16 21:52N 46°19' E 031°06'0 0.0
2018-Apr-16 21:19N 46°19' E 031°06'0 0.0
2018-Apr-16 16:01N 46°19' E 031°06'0 0.1
2018-Apr-16 15:58N 46°19' E 031°06'0 0.0
2018-Apr-16 15:25N 46°19' E 031°06'0 0.0
2018-Apr-16 14:58N 46°19' E 031°06'0 0.0
2018-Apr-16 07:19N 46°19' E 031°06'0 0.0
2018-Apr-16 06:52N 46°19' E 031°06'0 0.0
2018-Apr-16 06:13N 46°19' E 031°06'0 0.0
2018-Apr-16 05:58N 46°19' E 031°06'0 0.0
2018-Apr-16 05:19N 46°19' E 031°06'0 0.0
2018-Apr-16 04:49N 46°19' E 031°06'0 0.0
2018-Apr-16 04:28N 46°19' E 031°06'0 0.0
2018-Apr-16 03:58N 46°19' E 031°06'0 0.0
2018-Apr-16 03:28N 46°19' E 031°06'0 0.0
2018-Apr-16 02:58N 46°19' E 031°06'0 0.0
2018-Apr-16 02:28N 46°19' E 031°06'0 0.0
2018-Apr-16 01:58N 46°19' E 031°06'0 0.0
2018-Apr-16 01:28N 46°19' E 031°06'0 0.0
2018-Apr-16 00:55N 46°19' E 031°06'0 0.0
2018-Apr-16 00:28N 46°19' E 031°06'0 0.1
2018-Apr-15 23:55N 46°19' E 031°06'0 0.0
2018-Apr-15 23:28N 46°19' E 031°06'0 0.0
2018-Apr-15 22:37N 46°19' E 031°06'0 0.0
2018-Apr-15 22:25N 46°19' E 031°06'0 0.0
2018-Apr-15 21:49N 46°19' E 031°06'0 0.0
2018-Apr-15 21:28N 46°19' E 031°06'0 0.0
2018-Apr-15 19:01N 46°19' E 031°06'0 0.0
2018-Apr-15 18:55N 46°19' E 031°06'0 0.0
2018-Apr-15 18:19N 46°19' E 031°06'0 0.0
2018-Apr-15 17:58N 46°19' E 031°06'0 0.0
2018-Apr-15 17:19N 46°19' E 031°06'0 0.0
2018-Apr-15 16:46N 46°19' E 031°06'0 0.0
2018-Apr-15 16:25N 46°19' E 031°06'  
Track history (hours):
 
Tides and Currents Weather Stations Pressure Air Temp Water Temp Dewpoint Dewpoint Depression Visibility Wind Speed Wind Dir Waves Ship Positions

Michelle 1

Last reported at 2018-Apr-24 17:24 UTC. Time now 2018-Apr-24 23:03 UTC.
Position N 36°50' E 023°34'.

Length 116 m; draft 6 m.

Type: Cargo ship. MMSI: 248527000.

Date/timePositionNaut miles runAvg speedWind from/ knotsBaromVisibWave heightAir tempDewpointWater temp
2018-Apr-24 17:24N 36°50' E 023°34'5 9.4
2018-Apr-24 16:51N 36°54' E 023°37'3 9.3
2018-Apr-24 16:30N 36°57' E 023°39'5 9.4
2018-Apr-24 16:00N 37°01' E 023°43'6 9.6
2018-Apr-24 15:21N 37°06' E 023°47'15 9.8
2018-Apr-24 13:47N 37°19' E 023°57'4 9.6
2018-Apr-24 13:19N 37°23' E 023°60'177 9.9
2018-Apr-23 19:30N 39°56' E 025°54'273 5.6
2018-Apr-21 18:21N 43°20' E 029°56'3 9.8
2018-Apr-21 18:00N 43°23' E 029°58'5 9.7
2018-Apr-21 17:29N 43°28' E 029°60'5 9.9
2018-Apr-21 16:56N 43°33' E 030°02'165 9.6
2018-Apr-20 23:49N 46°14' E 030°56'7 9.0
2018-Apr-20 23:05N 46°20' E 030°55'110.2
2018-Apr-20 23:00N 46°21' E 030°55'510.2
2018-Apr-20 22:30N 46°26' E 030°55'510.1
2018-Apr-20 22:00N 46°31' E 030°55'35 8.7
2018-Apr-20 17:58N 46°36' E 031°46'5 9.4
2018-Apr-20 17:26N 46°37' E 031°53'4 8.7
2018-Apr-20 17:00N 46°41' E 031°56'4 8.3
2018-Apr-20 16:30N 46°45' E 031°54'4 8.4
2018-Apr-20 16:00N 46°49' E 031°54'5 9.8
2018-Apr-20 15:30N 46°52' E 031°59'4 8.6
2018-Apr-20 15:00N 46°56' E 032°01'0 0.4
2018-Apr-20 14:29N 46°57' E 032°01'0 0.0
2018-Apr-20 13:59N 46°57' E 032°01'0 0.0
2018-Apr-20 13:29N 46°57' E 032°01'0 0.0
2018-Apr-20 12:59N 46°57' E 032°01'0 0.0
2018-Apr-20 12:29N 46°57' E 032°01'0 0.0
2018-Apr-20 11:59N 46°57' E 032°01'0 0.0
2018-Apr-20 11:29N 46°57' E 032°01'0 0.0
2018-Apr-20 10:59N 46°57' E 032°01'0 0.0
2018-Apr-20 10:29N 46°57' E 032°01'0 0.0
2018-Apr-20 09:59N 46°57' E 032°01'0 0.0
2018-Apr-20 09:29N 46°57' E 032°01'0 0.0
2018-Apr-20 08:59N 46°57' E 032°01'0 0.0
2018-Apr-20 08:29N 46°57' E 032°01'0 0.0
2018-Apr-20 07:59N 46°57' E 032°01'0 0.0
2018-Apr-20 07:29N 46°57' E 032°01'0 0.0
2018-Apr-20 06:59N 46°57' E 032°01'0 0.0
2018-Apr-20 06:26N 46°57' E 032°01'0 0.0
2018-Apr-20 05:59N 46°57' E 032°01'0 0.0
2018-Apr-20 05:29N 46°57' E 032°01'0 0.0
2018-Apr-20 04:59N 46°57' E 032°01'0 0.0
2018-Apr-20 04:29N 46°57' E 032°01'0 0.0
2018-Apr-20 03:59N 46°57' E 032°01'0 0.0
2018-Apr-20 03:29N 46°57' E 032°01'0 0.0
2018-Apr-20 02:59N 46°57' E 032°01'0 0.0
2018-Apr-20 02:29N 46°57' E 032°01'0 0.0
2018-Apr-20 01:59N 46°57' E 032°01'0 0.0
2018-Apr-20 01:29N 46°57' E 032°01'0 0.0
2018-Apr-20 00:59N 46°57' E 032°01'0 0.0
2018-Apr-20 00:29N 46°57' E 032°01'0 0.0
2018-Apr-19 23:59N 46°57' E 032°01'0 0.0
2018-Apr-19 23:29N 46°57' E 032°01'0 0.0
2018-Apr-19 22:59N 46°57' E 032°01'0 0.0
2018-Apr-19 22:29N 46°57' E 032°01'0 0.0
2018-Apr-19 21:59N 46°57' E 032°01'0 0.0
2018-Apr-19 21:29N 46°57' E 032°01'0 0.0
2018-Apr-19 20:56N 46°57' E 032°01'0 0.0
2018-Apr-19 20:29N 46°57' E 032°01'0 0.0
2018-Apr-19 19:59N 46°57' E 032°01'0 0.0
2018-Apr-19 19:29N 46°57' E 032°01'0 0.0
2018-Apr-19 18:59N 46°57' E 032°01'0 0.0
2018-Apr-19 18:29N 46°57' E 032°01'0 0.0
2018-Apr-19 17:59N 46°57' E 032°01'0 0.0
2018-Apr-19 17:29N 46°57' E 032°01'0 0.0
2018-Apr-19 16:59N 46°57' E 032°01'0 0.0
2018-Apr-19 16:29N 46°57' E 032°01'0 0.0
2018-Apr-19 15:59N 46°57' E 032°01'0 0.0
2018-Apr-19 15:29N 46°57' E 032°01'0 0.0
2018-Apr-19 14:59N 46°57' E 032°01'0 0.0
2018-Apr-19 14:29N 46°57' E 032°01'0 0.0
2018-Apr-19 13:59N 46°57' E 032°01'0 0.0
2018-Apr-19 13:26N 46°57' E 032°01'0 0.0
2018-Apr-19 12:59N 46°57' E 032°01'0 0.0
2018-Apr-19 12:29N 46°57' E 032°01'0 0.0
2018-Apr-19 11:59N 46°57' E 032°01'0 0.0
2018-Apr-19 11:29N 46°57' E 032°01'0 0.0
2018-Apr-19 10:59N 46°57' E 032°01'0 0.0
2018-Apr-19 10:29N 46°57' E 032°01'0 0.0
2018-Apr-19 09:59N 46°57' E 032°01'0 0.0
2018-Apr-19 09:29N 46°57' E 032°01'0 0.0
2018-Apr-19 08:59N 46°57' E 032°01'0 0.0
2018-Apr-19 08:29N 46°57' E 032°01'0 0.0
2018-Apr-19 07:59N 46°57' E 032°01'0 0.0
2018-Apr-19 07:29N 46°57' E 032°01'0 0.0
2018-Apr-19 06:59N 46°57' E 032°01'0 0.0
2018-Apr-19 06:29N 46°57' E 032°01'0 0.0
2018-Apr-19 05:59N 46°57' E 032°01'0 0.0
2018-Apr-19 05:29N 46°57' E 032°01'0 0.0
2018-Apr-19 04:59N 46°57' E 032°01'0 0.0
2018-Apr-19 04:29N 46°57' E 032°01'0 0.0
2018-Apr-19 03:59N 46°57' E 032°01'0 0.0
2018-Apr-19 03:29N 46°57' E 032°01'0 0.0
2018-Apr-19 02:59N 46°57' E 032°01'0 0.0
2018-Apr-19 02:29N 46°57' E 032°01'0 0.0
2018-Apr-19 01:59N 46°57' E 032°01'0 0.0
2018-Apr-19 01:29N 46°57' E 032°01'0 0.0
2018-Apr-19 00:59N 46°57' E 032°01'0 0.0
2018-Apr-19 00:29N 46°57' E 032°01'0 0.0
2018-Apr-18 23:59N 46°57' E 032°01'0 0.0
2018-Apr-18 23:29N 46°57' E 032°01'0 0.0
2018-Apr-18 22:14N 46°57' E 032°01'0 0.0
2018-Apr-18 21:59N 46°57' E 032°01'0 0.0
2018-Apr-18 21:29N 46°57' E 032°01'0 0.0
2018-Apr-18 20:59N 46°57' E 032°01'0 0.0
2018-Apr-18 20:29N 46°57' E 032°01'0 0.0
2018-Apr-18 19:59N 46°57' E 032°01'0 0.0
2018-Apr-18 19:29N 46°57' E 032°01'0 0.0
2018-Apr-18 18:59N 46°57' E 032°01'0 0.0
2018-Apr-18 18:29N 46°57' E 032°01'0 0.0
2018-Apr-18 17:59N 46°57' E 032°01'0 0.0
2018-Apr-18 17:29N 46°57' E 032°01'0 0.0
2018-Apr-18 16:59N 46°57' E 032°01'0 0.0
2018-Apr-18 16:29N 46°57' E 032°01'0 0.0
2018-Apr-18 15:59N 46°57' E 032°01'0 0.0
2018-Apr-18 15:29N 46°57' E 032°01'0 0.0
2018-Apr-18 14:59N 46°57' E 032°01'0 0.0
2018-Apr-18 14:29N 46°57' E 032°01'0 0.0
2018-Apr-18 13:59N 46°57' E 032°01'0 0.0
2018-Apr-18 13:29N 46°57' E 032°01'0 0.0
2018-Apr-18 12:59N 46°57' E 032°01'0 0.0
2018-Apr-18 12:29N 46°57' E 032°01'0 0.0
2018-Apr-18 11:59N 46°57' E 032°01'0 0.0
2018-Apr-18 11:29N 46°57' E 032°01'0 0.0
2018-Apr-18 10:59N 46°57' E 032°01'0 0.0
2018-Apr-18 10:29N 46°57' E 032°01'0 0.0
2018-Apr-18 09:59N 46°57' E 032°01'0 0.0
2018-Apr-18 09:29N 46°57' E 032°01'0 0.0
2018-Apr-18 08:59N 46°57' E 032°01'0 0.0
2018-Apr-18 08:29N 46°57' E 032°01'0 0.0
2018-Apr-18 07:59N 46°57' E 032°01'0 0.0
2018-Apr-18 07:29N 46°57' E 032°01'0 0.0
2018-Apr-18 06:59N 46°57' E 032°01'0 0.0
2018-Apr-18 06:29N 46°57' E 032°01'0 0.0
2018-Apr-18 05:59N 46°57' E 032°01'0 0.0
2018-Apr-18 05:29N 46°57' E 032°01'0 0.0
2018-Apr-18 04:59N 46°57' E 032°01'0 0.0
2018-Apr-18 04:29N 46°57' E 032°01'0 0.0
2018-Apr-18 03:59N 46°57' E 032°01'0 0.0
2018-Apr-18 03:29N 46°57' E 032°01'0 0.0
2018-Apr-18 02:59N 46°57' E 032°01'0 0.0
2018-Apr-18 02:29N 46°57' E 032°01'0 0.0
2018-Apr-18 01:56N 46°57' E 032°01'0 0.0
2018-Apr-18 01:29N 46°57' E 032°01'0 0.0
2018-Apr-18 00:59N 46°57' E 032°01'0 0.0
2018-Apr-18 00:29N 46°57' E 032°01'0 0.0
2018-Apr-17 23:59N 46°57' E 032°01'0 0.0
2018-Apr-17 23:29N 46°57' E 032°01'0 0.0
2018-Apr-17 22:59N 46°57' E 032°01'0 0.0
2018-Apr-17 22:29N 46°57' E 032°01'0 0.0
2018-Apr-17 21:59N 46°57' E 032°01'0 0.0
2018-Apr-17 21:29N 46°57' E 032°01'0 0.0
2018-Apr-17 20:59N 46°57' E 032°01'0 0.0
2018-Apr-17 20:29N 46°57' E 032°01'0 0.0
2018-Apr-17 19:59N 46°57' E 032°01'0 0.0
2018-Apr-17 19:29N 46°57' E 032°01'0 0.0
2018-Apr-17 18:59N 46°57' E 032°01'0 0.0
2018-Apr-17 18:29N 46°57' E 032°01'0 0.0
2018-Apr-17 17:59N 46°57' E 032°01'0 0.0
2018-Apr-17 17:29N 46°57' E 032°01'0 0.0
2018-Apr-17 16:59N 46°57' E 032°01'0 0.0
2018-Apr-17 16:29N 46°57' E 032°01'0 0.0
2018-Apr-17 15:59N 46°57' E 032°01'0 0.0
2018-Apr-17 15:29N 46°57' E 032°01'0 0.0
2018-Apr-17 14:59N 46°57' E 032°01'0 0.0
2018-Apr-17 14:29N 46°57' E 032°01'0 0.0
2018-Apr-17 13:59N 46°57' E 032°01'0 0.0
2018-Apr-17 13:29N 46°57' E 032°01'0 0.0
2018-Apr-17 12:59N 46°57' E 032°01'0 0.0
2018-Apr-17 12:29N 46°57' E 032°01'0 0.0
2018-Apr-17 11:59N 46°57' E 032°01'0 0.0
2018-Apr-17 11:29N 46°57' E 032°01'0 0.0
2018-Apr-17 10:59N 46°57' E 032°01'0 0.0
2018-Apr-17 10:29N 46°57' E 032°01'0 0.0
2018-Apr-17 09:59N 46°57' E 032°01'0 0.0
2018-Apr-17 09:30N 46°57' E 032°01'1 1.3
2018-Apr-17 09:00N 46°56' E 032°01'4 7.9
2018-Apr-17 08:30N 46°52' E 031°59'510.6
2018-Apr-17 08:00N 46°48' E 031°54'5 9.2
2018-Apr-17 07:30N 46°44' E 031°56'510.0
2018-Apr-17 07:00N 46°39' E 031°56'510.1
2018-Apr-17 06:30N 46°36' E 031°49'5 9.7
2018-Apr-17 06:00N 46°36' E 031°42'510.0
2018-Apr-17 05:30N 46°35' E 031°35'4 8.5
2018-Apr-17 05:00N 46°36' E 031°29'5 9.9
2018-Apr-17 04:28N 46°35' E 031°21'510.1
2018-Apr-17 04:00N 46°35' E 031°15'610.3
2018-Apr-17 03:27N 46°35' E 031°06'4 8.8
2018-Apr-17 03:00N 46°33' E 031°01'3 6.5
2018-Apr-17 02:30N 46°32' E 030°57'4 8.6
2018-Apr-17 02:00N 46°27' E 030°57'4 7.2
2018-Apr-17 01:29N 46°24' E 030°57'4 7.4
2018-Apr-17 01:00N 46°20' E 030°60'4 7.1
2018-Apr-17 00:22N 46°19' E 031°06'0 0.1
2018-Apr-16 23:43N 46°19' E 031°06'0 0.0
2018-Apr-16 23:25N 46°19' E 031°06'0 0.0
2018-Apr-16 22:55N 46°19' E 031°06'0 0.0
2018-Apr-16 22:28N 46°19' E 031°06'0 0.0
2018-Apr-16 21:52N 46°19' E 031°06'0 0.0
2018-Apr-16 21:19N 46°19' E 031°06'0 0.0
2018-Apr-16 16:01N 46°19' E 031°06'0 0.1
2018-Apr-16 15:58N 46°19' E 031°06'0 0.0
2018-Apr-16 15:25N 46°19' E 031°06'0 0.0
2018-Apr-16 14:58N 46°19' E 031°06'0 0.0
2018-Apr-16 07:19N 46°19' E 031°06'0 0.0
2018-Apr-16 06:52N 46°19' E 031°06'0 0.0
2018-Apr-16 06:13N 46°19' E 031°06'0 0.0
2018-Apr-16 05:58N 46°19' E 031°06'0 0.0
2018-Apr-16 05:19N 46°19' E 031°06'0 0.0
2018-Apr-16 04:49N 46°19' E 031°06'0 0.0
2018-Apr-16 04:28N 46°19' E 031°06'0 0.0
2018-Apr-16 03:58N 46°19' E 031°06'0 0.0
2018-Apr-16 03:28N 46°19' E 031°06'0 0.0
2018-Apr-16 02:58N 46°19' E 031°06'0 0.0
2018-Apr-16 02:28N 46°19' E 031°06'0 0.0
2018-Apr-16 01:58N 46°19' E 031°06'0 0.0
2018-Apr-16 01:28N 46°19' E 031°06'0 0.0
2018-Apr-16 00:55N 46°19' E 031°06'0 0.0
2018-Apr-16 00:28N 46°19' E 031°06'0 0.1
2018-Apr-15 23:55N 46°19' E 031°06'0 0.0
2018-Apr-15 23:28N 46°19' E 031°06'0 0.0
2018-Apr-15 22:37N 46°19' E 031°06'0 0.0
2018-Apr-15 22:25N 46°19' E 031°06'0 0.0
2018-Apr-15 21:49N 46°19' E 031°06'0 0.0
2018-Apr-15 21:28N 46°19' E 031°06'0 0.0
2018-Apr-15 19:01N 46°19' E 031°06'0 0.0
2018-Apr-15 18:55N 46°19' E 031°06'0 0.0
2018-Apr-15 18:19N 46°19' E 031°06'0 0.0
2018-Apr-15 17:58N 46°19' E 031°06'0 0.0
2018-Apr-15 17:19N 46°19' E 031°06'0 0.0
2018-Apr-15 16:46N 46°19' E 031°06'0 0.0
2018-Apr-15 16:25N 46°19' E 031°06'  

Dump ship's entire track history